sensor_id;sensor_type;location;lat;lon;timestamp;P1;durP1;ratioP1;P2;durP2;ratioP2
16330;SDS011;8275;48.206;16.340;2023-02-15T00:00:23;15.23;;;12.20;;
16330;SDS011;8275;48.206;16.340;2023-02-15T00:02:52;13.95;;;12.02;;
16330;SDS011;8275;48.206;16.340;2023-02-15T00:05:22;18.23;;;13.35;;
16330;SDS011;8275;48.206;16.340;2023-02-15T00:07:50;16.20;;;14.45;;
16330;SDS011;8275;48.206;16.340;2023-02-15T00:10:19;16.23;;;13.52;;
16330;SDS011;8275;48.206;16.340;2023-02-15T00:12:47;16.20;;;13.38;;
16330;SDS011;8275;48.206;16.340;2023-02-15T00:15:16;14.32;;;12.50;;
16330;SDS011;8275;48.206;16.340;2023-02-15T00:17:44;14.55;;;13.05;;
16330;SDS011;8275;48.206;16.340;2023-02-15T00:20:13;16.25;;;13.25;;
16330;SDS011;8275;48.206;16.340;2023-02-15T00:22:43;14.93;;;13.07;;
16330;SDS011;8275;48.206;16.340;2023-02-15T00:25:11;15.85;;;12.43;;
16330;SDS011;8275;48.206;16.340;2023-02-15T00:27:40;15.98;;;13.20;;
16330;SDS011;8275;48.206;16.340;2023-02-15T00:30:08;16.25;;;13.23;;
16330;SDS011;8275;48.206;16.340;2023-02-15T00:32:38;17.33;;;14.05;;
16330;SDS011;8275;48.206;16.340;2023-02-15T00:35:06;15.48;;;13.02;;
16330;SDS011;8275;48.206;16.340;2023-02-15T00:37:36;15.20;;;13.70;;
16330;SDS011;8275;48.206;16.340;2023-02-15T00:40:06;16.77;;;14.10;;
16330;SDS011;8275;48.206;16.340;2023-02-15T00:42:36;13.93;;;11.00;;
16330;SDS011;8275;48.206;16.340;2023-02-15T00:45:05;14.88;;;12.57;;
16330;SDS011;8275;48.206;16.340;2023-02-15T00:47:34;15.15;;;13.07;;
16330;SDS011;8275;48.206;16.340;2023-02-15T00:50:03;19.38;;;12.85;;
16330;SDS011;8275;48.206;16.340;2023-02-15T00:52:33;16.17;;;13.07;;
16330;SDS011;8275;48.206;16.340;2023-02-15T00:55:02;13.65;;;12.18;;
16330;SDS011;8275;48.206;16.340;2023-02-15T00:57:33;13.38;;;11.98;;
16330;SDS011;8275;48.206;16.340;2023-02-15T01:00:01;15.25;;;12.13;;
16330;SDS011;8275;48.206;16.340;2023-02-15T01:02:31;13.88;;;12.38;;
16330;SDS011;8275;48.206;16.340;2023-02-15T01:04:59;18.27;;;13.10;;
16330;SDS011;8275;48.206;16.340;2023-02-15T01:07:28;16.50;;;13.18;;
16330;SDS011;8275;48.206;16.340;2023-02-15T01:09:57;14.85;;;13.25;;
16330;SDS011;8275;48.206;16.340;2023-02-15T01:12:25;17.50;;;12.85;;
16330;SDS011;8275;48.206;16.340;2023-02-15T01:14:55;14.85;;;11.63;;
16330;SDS011;8275;48.206;16.340;2023-02-15T01:17:23;14.90;;;13.02;;
16330;SDS011;8275;48.206;16.340;2023-02-15T01:19:52;15.32;;;13.27;;
16330;SDS011;8275;48.206;16.340;2023-02-15T01:22:20;18.25;;;13.77;;
16330;SDS011;8275;48.206;16.340;2023-02-15T01:24:49;15.85;;;13.65;;
16330;SDS011;8275;48.206;16.340;2023-02-15T01:27:17;14.07;;;12.07;;
16330;SDS011;8275;48.206;16.340;2023-02-15T01:29:46;14.88;;;13.30;;
16330;SDS011;8275;48.206;16.340;2023-02-15T01:32:16;15.73;;;12.30;;
16330;SDS011;8275;48.206;16.340;2023-02-15T01:34:44;15.73;;;11.77;;
16330;SDS011;8275;48.206;16.340;2023-02-15T01:37:13;14.98;;;13.32;;
16330;SDS011;8275;48.206;16.340;2023-02-15T01:39:41;12.80;;;11.25;;
16330;SDS011;8275;48.206;16.340;2023-02-15T01:42:10;15.50;;;13.90;;
16330;SDS011;8275;48.206;16.340;2023-02-15T01:44:47;14.88;;;13.32;;
16330;SDS011;8275;48.206;16.340;2023-02-15T01:47:23;17.05;;;13.05;;
16330;SDS011;8275;48.206;16.340;2023-02-15T01:50:02;15.25;;;13.68;;
16330;SDS011;8275;48.206;16.340;2023-02-15T01:52:38;17.02;;;15.32;;
16330;SDS011;8275;48.206;16.340;2023-02-15T01:55:14;16.45;;;14.45;;
16330;SDS011;8275;48.206;16.340;2023-02-15T01:57:43;17.73;;;14.68;;
16330;SDS011;8275;48.206;16.340;2023-02-15T02:00:13;16.80;;;13.88;;
16330;SDS011;8275;48.206;16.340;2023-02-15T02:02:45;17.90;;;14.38;;
16330;SDS011;8275;48.206;16.340;2023-02-15T02:05:16;15.88;;;14.07;;
16330;SDS011;8275;48.206;16.340;2023-02-15T02:07:45;16.27;;;13.95;;
16330;SDS011;8275;48.206;16.340;2023-02-15T02:10:17;16.00;;;12.27;;
16330;SDS011;8275;48.206;16.340;2023-02-15T02:12:49;13.50;;;11.90;;
16330;SDS011;8275;48.206;16.340;2023-02-15T02:15:20;16.98;;;13.43;;
16330;SDS011;8275;48.206;16.340;2023-02-15T02:18:02;15.93;;;13.90;;
16330;SDS011;8275;48.206;16.340;2023-02-15T02:20:50;14.82;;;13.35;;
16330;SDS011;8275;48.206;16.340;2023-02-15T02:23:42;20.80;;;13.40;;
16330;SDS011;8275;48.206;16.340;2023-02-15T02:29:56;16.70;;;13.88;;
16330;SDS011;8275;48.206;16.340;2023-02-15T02:36:20;17.88;;;14.85;;
16330;SDS011;8275;48.206;16.340;2023-02-15T02:39:09;16.05;;;14.23;;
16330;SDS011;8275;48.206;16.340;2023-02-15T02:41:53;15.43;;;13.38;;
16330;SDS011;8275;48.206;16.340;2023-02-15T02:44:29;16.42;;;14.25;;
16330;SDS011;8275;48.206;16.340;2023-02-15T02:47:09;16.00;;;13.93;;
16330;SDS011;8275;48.206;16.340;2023-02-15T02:49:44;16.42;;;13.82;;
16330;SDS011;8275;48.206;16.340;2023-02-15T02:52:36;16.10;;;13.77;;
16330;SDS011;8275;48.206;16.340;2023-02-15T02:55:10;18.88;;;13.07;;
16330;SDS011;8275;48.206;16.340;2023-02-15T02:57:45;16.52;;;14.77;;
16330;SDS011;8275;48.206;16.340;2023-02-15T03:00:21;16.58;;;14.20;;
16330;SDS011;8275;48.206;16.340;2023-02-15T03:02:53;18.75;;;15.65;;
16330;SDS011;8275;48.206;16.340;2023-02-15T03:05:36;17.13;;;14.63;;
16330;SDS011;8275;48.206;16.340;2023-02-15T03:08:08;14.60;;;11.68;;
16330;SDS011;8275;48.206;16.340;2023-02-15T03:10:39;15.57;;;13.88;;
16330;SDS011;8275;48.206;16.340;2023-02-15T03:13:08;16.92;;;14.10;;
16330;SDS011;8275;48.206;16.340;2023-02-15T03:15:38;16.48;;;14.07;;
16330;SDS011;8275;48.206;16.340;2023-02-15T03:18:28;18.80;;;14.10;;
16330;SDS011;8275;48.206;16.340;2023-02-15T03:21:04;14.02;;;11.45;;
16330;SDS011;8275;48.206;16.340;2023-02-15T03:23:35;14.85;;;12.40;;
16330;SDS011;8275;48.206;16.340;2023-02-15T03:26:05;15.20;;;13.02;;
16330;SDS011;8275;48.206;16.340;2023-02-15T03:28:38;15.52;;;13.20;;
16330;SDS011;8275;48.206;16.340;2023-02-15T03:31:12;15.50;;;13.85;;
16330;SDS011;8275;48.206;16.340;2023-02-15T03:33:47;14.70;;;13.20;;
16330;SDS011;8275;48.206;16.340;2023-02-15T03:36:24;17.60;;;13.27;;
16330;SDS011;8275;48.206;16.340;2023-02-15T03:39:05;15.85;;;14.15;;
16330;SDS011;8275;48.206;16.340;2023-02-15T03:41:42;16.40;;;14.55;;
16330;SDS011;8275;48.206;16.340;2023-02-15T03:44:18;16.95;;;14.40;;
16330;SDS011;8275;48.206;16.340;2023-02-15T03:46:53;17.27;;;15.10;;
16330;SDS011;8275;48.206;16.340;2023-02-15T03:49:30;21.63;;;16.27;;
16330;SDS011;8275;48.206;16.340;2023-02-15T03:52:10;17.63;;;15.75;;
16330;SDS011;8275;48.206;16.340;2023-02-15T03:54:41;17.80;;;15.93;;
16330;SDS011;8275;48.206;16.340;2023-02-15T03:57:13;16.33;;;14.63;;
16330;SDS011;8275;48.206;16.340;2023-02-15T04:00:04;15.32;;;13.85;;
16330;SDS011;8275;48.206;16.340;2023-02-15T04:03:05;17.30;;;15.40;;
16330;SDS011;8275;48.206;16.340;2023-02-15T04:05:43;16.92;;;13.80;;
16330;SDS011;8275;48.206;16.340;2023-02-15T04:08:13;16.55;;;14.18;;
16330;SDS011;8275;48.206;16.340;2023-02-15T04:10:42;17.23;;;13.80;;
16330;SDS011;8275;48.206;16.340;2023-02-15T04:13:19;16.13;;;13.65;;
16330;SDS011;8275;48.206;16.340;2023-02-15T04:15:48;17.65;;;15.63;;
16330;SDS011;8275;48.206;16.340;2023-02-15T04:18:33;16.27;;;13.73;;
16330;SDS011;8275;48.206;16.340;2023-02-15T04:21:21;17.73;;;14.15;;
16330;SDS011;8275;48.206;16.340;2023-02-15T04:24:11;16.63;;;14.70;;
16330;SDS011;8275;48.206;16.340;2023-02-15T04:26:58;15.90;;;12.57;;
16330;SDS011;8275;48.206;16.340;2023-02-15T04:29:28;15.40;;;13.10;;
16330;SDS011;8275;48.206;16.340;2023-02-15T04:31:58;14.98;;;11.40;;
16330;SDS011;8275;48.206;16.340;2023-02-15T04:34:28;17.35;;;14.68;;
16330;SDS011;8275;48.206;16.340;2023-02-15T04:36:56;17.65;;;14.93;;
16330;SDS011;8275;48.206;16.340;2023-02-15T04:39:26;20.20;;;14.82;;
16330;SDS011;8275;48.206;16.340;2023-02-15T04:41:55;19.55;;;15.57;;
16330;SDS011;8275;48.206;16.340;2023-02-15T04:44:24;17.52;;;14.40;;
16330;SDS011;8275;48.206;16.340;2023-02-15T04:46:52;17.52;;;15.27;;
16330;SDS011;8275;48.206;16.340;2023-02-15T04:49:21;19.05;;;14.68;;
16330;SDS011;8275;48.206;16.340;2023-02-15T04:51:49;19.63;;;14.32;;
16330;SDS011;8275;48.206;16.340;2023-02-15T04:54:18;16.48;;;14.18;;
16330;SDS011;8275;48.206;16.340;2023-02-15T04:56:48;18.73;;;15.33;;
16330;SDS011;8275;48.206;16.340;2023-02-15T04:59:16;22.52;;;16.35;;
16330;SDS011;8275;48.206;16.340;2023-02-15T05:01:44;18.77;;;15.45;;
16330;SDS011;8275;48.206;16.340;2023-02-15T05:04:13;20.08;;;16.60;;
16330;SDS011;8275;48.206;16.340;2023-02-15T05:06:41;18.02;;;15.13;;
16330;SDS011;8275;48.206;16.340;2023-02-15T05:09:10;19.05;;;14.63;;
16330;SDS011;8275;48.206;16.340;2023-02-15T05:11:39;16.02;;;13.20;;
16330;SDS011;8275;48.206;16.340;2023-02-15T05:14:09;23.23;;;14.85;;
16330;SDS011;8275;48.206;16.340;2023-02-15T05:16:38;17.98;;;14.77;;
16330;SDS011;8275;48.206;16.340;2023-02-15T05:19:06;21.38;;;16.13;;
16330;SDS011;8275;48.206;16.340;2023-02-15T05:21:35;23.38;;;16.95;;
16330;SDS011;8275;48.206;16.340;2023-02-15T05:24:03;16.13;;;13.85;;
16330;SDS011;8275;48.206;16.340;2023-02-15T05:26:53;19.98;;;16.45;;
16330;SDS011;8275;48.206;16.340;2023-02-15T05:29:40;18.42;;;15.40;;
16330;SDS011;8275;48.206;16.340;2023-02-15T05:32:09;16.88;;;14.82;;
16330;SDS011;8275;48.206;16.340;2023-02-15T05:34:40;16.50;;;12.80;;
16330;SDS011;8275;48.206;16.340;2023-02-15T05:37:08;16.02;;;13.13;;
16330;SDS011;8275;48.206;16.340;2023-02-15T05:39:37;20.13;;;15.68;;
16330;SDS011;8275;48.206;16.340;2023-02-15T05:42:05;21.30;;;15.90;;
16330;SDS011;8275;48.206;16.340;2023-02-15T05:44:34;19.30;;;14.73;;
16330;SDS011;8275;48.206;16.340;2023-02-15T05:47:03;23.25;;;16.25;;
16330;SDS011;8275;48.206;16.340;2023-02-15T05:49:33;20.60;;;16.70;;
16330;SDS011;8275;48.206;16.340;2023-02-15T05:52:02;21.33;;;17.88;;
16330;SDS011;8275;48.206;16.340;2023-02-15T05:54:31;21.90;;;16.38;;
16330;SDS011;8275;48.206;16.340;2023-02-15T05:56:59;19.05;;;16.90;;
16330;SDS011;8275;48.206;16.340;2023-02-15T05:59:28;21.40;;;16.98;;
16330;SDS011;8275;48.206;16.340;2023-02-15T06:01:56;18.95;;;15.75;;
16330;SDS011;8275;48.206;16.340;2023-02-15T06:04:26;22.60;;;16.90;;
16330;SDS011;8275;48.206;16.340;2023-02-15T06:06:55;19.88;;;15.57;;
16330;SDS011;8275;48.206;16.340;2023-02-15T06:09:23;21.23;;;17.00;;
16330;SDS011;8275;48.206;16.340;2023-02-15T06:11:52;21.75;;;15.15;;
16330;SDS011;8275;48.206;16.340;2023-02-15T06:14:20;19.02;;;16.38;;
16330;SDS011;8275;48.206;16.340;2023-02-15T06:16:49;18.88;;;15.23;;
16330;SDS011;8275;48.206;16.340;2023-02-15T06:19:17;19.50;;;16.67;;
16330;SDS011;8275;48.206;16.340;2023-02-15T06:21:48;22.10;;;19.00;;
16330;SDS011;8275;48.206;16.340;2023-02-15T06:24:17;18.30;;;14.32;;
16330;SDS011;8275;48.206;16.340;2023-02-15T06:26:46;20.27;;;14.63;;
16330;SDS011;8275;48.206;16.340;2023-02-15T06:29:14;18.23;;;15.30;;
16330;SDS011;8275;48.206;16.340;2023-02-15T06:31:43;20.23;;;14.60;;
16330;SDS011;8275;48.206;16.340;2023-02-15T06:34:11;17.80;;;14.02;;
16330;SDS011;8275;48.206;16.340;2023-02-15T06:36:40;17.75;;;14.98;;
16330;SDS011;8275;48.206;16.340;2023-02-15T06:39:10;18.63;;;14.68;;
16330;SDS011;8275;48.206;16.340;2023-02-15T06:41:38;21.80;;;15.75;;
16330;SDS011;8275;48.206;16.340;2023-02-15T06:44:07;20.90;;;15.00;;
16330;SDS011;8275;48.206;16.340;2023-02-15T06:46:35;19.13;;;14.65;;
16330;SDS011;8275;48.206;16.340;2023-02-15T06:49:04;16.27;;;13.25;;
16330;SDS011;8275;48.206;16.340;2023-02-15T06:51:33;16.35;;;13.32;;
16330;SDS011;8275;48.206;16.340;2023-02-15T06:54:01;20.58;;;14.75;;
16330;SDS011;8275;48.206;16.340;2023-02-15T06:56:31;19.45;;;14.48;;
16330;SDS011;8275;48.206;16.340;2023-02-15T06:59:00;15.48;;;12.75;;
16330;SDS011;8275;48.206;16.340;2023-02-15T07:01:28;16.20;;;13.48;;
16330;SDS011;8275;48.206;16.340;2023-02-15T07:03:57;16.23;;;12.20;;
16330;SDS011;8275;48.206;16.340;2023-02-15T07:06:25;15.85;;;13.65;;
16330;SDS011;8275;48.206;16.340;2023-02-15T07:08:58;15.73;;;12.38;;
16330;SDS011;8275;48.206;16.340;2023-02-15T07:11:26;14.13;;;12.18;;
16330;SDS011;8275;48.206;16.340;2023-02-15T07:14:14;37.92;;;13.93;;
16330;SDS011;8275;48.206;16.340;2023-02-15T07:16:42;17.55;;;14.10;;
16330;SDS011;8275;48.206;16.340;2023-02-15T07:19:11;15.80;;;13.38;;
16330;SDS011;8275;48.206;16.340;2023-02-15T07:21:39;15.07;;;12.40;;
16330;SDS011;8275;48.206;16.340;2023-02-15T07:24:08;17.13;;;13.95;;
16330;SDS011;8275;48.206;16.340;2023-02-15T07:26:36;26.33;;;16.75;;
16330;SDS011;8275;48.206;16.340;2023-02-15T07:29:05;20.40;;;14.25;;
16330;SDS011;8275;48.206;16.340;2023-02-15T07:31:35;17.35;;;15.27;;
16330;SDS011;8275;48.206;16.340;2023-02-15T07:34:05;19.42;;;14.15;;
16330;SDS011;8275;48.206;16.340;2023-02-15T07:36:34;18.42;;;13.82;;
16330;SDS011;8275;48.206;16.340;2023-02-15T07:39:02;18.50;;;13.80;;
16330;SDS011;8275;48.206;16.340;2023-02-15T07:41:31;18.45;;;13.05;;
16330;SDS011;8275;48.206;16.340;2023-02-15T07:43:59;17.15;;;13.18;;
16330;SDS011;8275;48.206;16.340;2023-02-15T07:46:28;17.02;;;13.05;;
16330;SDS011;8275;48.206;16.340;2023-02-15T07:48:58;20.20;;;14.98;;
16330;SDS011;8275;48.206;16.340;2023-02-15T07:51:26;16.77;;;12.75;;
16330;SDS011;8275;48.206;16.340;2023-02-15T07:53:55;25.38;;;16.17;;
16330;SDS011;8275;48.206;16.340;2023-02-15T07:56:23;20.02;;;14.27;;
16330;SDS011;8275;48.206;16.340;2023-02-15T07:58:52;17.42;;;12.85;;
16330;SDS011;8275;48.206;16.340;2023-02-15T08:01:23;20.40;;;14.75;;
16330;SDS011;8275;48.206;16.340;2023-02-15T08:03:53;17.95;;;14.55;;
16330;SDS011;8275;48.206;16.340;2023-02-15T08:06:29;15.60;;;11.82;;
16330;SDS011;8275;48.206;16.340;2023-02-15T08:09:02;17.80;;;13.88;;
16330;SDS011;8275;48.206;16.340;2023-02-15T08:11:33;18.80;;;14.18;;
16330;SDS011;8275;48.206;16.340;2023-02-15T08:14:04;17.63;;;12.95;;
16330;SDS011;8275;48.206;16.340;2023-02-15T08:16:35;18.65;;;13.80;;
16330;SDS011;8275;48.206;16.340;2023-02-15T08:19:06;15.73;;;13.35;;
16330;SDS011;8275;48.206;16.340;2023-02-15T08:21:39;17.88;;;13.00;;
16330;SDS011;8275;48.206;16.340;2023-02-15T08:24:10;22.38;;;19.33;;
16330;SDS011;8275;48.206;16.340;2023-02-15T08:26:41;19.42;;;14.85;;
16330;SDS011;8275;48.206;16.340;2023-02-15T08:29:11;16.60;;;13.15;;
16330;SDS011;8275;48.206;16.340;2023-02-15T08:31:40;19.10;;;15.48;;
16330;SDS011;8275;48.206;16.340;2023-02-15T08:34:09;17.63;;;14.98;;
16330;SDS011;8275;48.206;16.340;2023-02-15T08:36:43;16.80;;;14.25;;
16330;SDS011;8275;48.206;16.340;2023-02-15T08:39:12;16.33;;;14.52;;
16330;SDS011;8275;48.206;16.340;2023-02-15T08:41:42;17.83;;;14.35;;
16330;SDS011;8275;48.206;16.340;2023-02-15T08:44:14;16.92;;;12.77;;
16330;SDS011;8275;48.206;16.340;2023-02-15T08:46:44;33.78;;;13.65;;
16330;SDS011;8275;48.206;16.340;2023-02-15T08:49:15;16.88;;;14.23;;
16330;SDS011;8275;48.206;16.340;2023-02-15T08:51:47;17.27;;;13.65;;
16330;SDS011;8275;48.206;16.340;2023-02-15T08:54:17;17.23;;;12.07;;
16330;SDS011;8275;48.206;16.340;2023-02-15T08:56:47;19.20;;;14.60;;
16330;SDS011;8275;48.206;16.340;2023-02-15T08:59:17;19.88;;;14.02;;
16330;SDS011;8275;48.206;16.340;2023-02-15T09:01:48;14.52;;;11.82;;
16330;SDS011;8275;48.206;16.340;2023-02-15T09:04:18;22.58;;;13.93;;
16330;SDS011;8275;48.206;16.340;2023-02-15T09:06:48;20.35;;;14.82;;
16330;SDS011;8275;48.206;16.340;2023-02-15T09:09:18;20.67;;;14.70;;
16330;SDS011;8275;48.206;16.340;2023-02-15T09:11:48;16.50;;;13.27;;
16330;SDS011;8275;48.206;16.340;2023-02-15T09:14:24;17.15;;;13.45;;
16330;SDS011;8275;48.206;16.340;2023-02-15T09:16:53;18.92;;;12.75;;
16330;SDS011;8275;48.206;16.340;2023-02-15T09:19:23;17.10;;;12.50;;
16330;SDS011;8275;48.206;16.340;2023-02-15T09:21:53;13.45;;;12.13;;
16330;SDS011;8275;48.206;16.340;2023-02-15T09:24:22;20.05;;;14.05;;
16330;SDS011;8275;48.206;16.340;2023-02-15T09:26:50;22.90;;;16.38;;
16330;SDS011;8275;48.206;16.340;2023-02-15T09:29:19;18.52;;;14.98;;
16330;SDS011;8275;48.206;16.340;2023-02-15T09:31:49;28.45;;;15.25;;
16330;SDS011;8275;48.206;16.340;2023-02-15T09:34:20;32.78;;;23.77;;
16330;SDS011;8275;48.206;16.340;2023-02-15T09:36:50;22.73;;;18.00;;
16330;SDS011;8275;48.206;16.340;2023-02-15T09:39:21;17.70;;;13.50;;
16330;SDS011;8275;48.206;16.340;2023-02-15T09:41:58;20.67;;;16.10;;
16330;SDS011;8275;48.206;16.340;2023-02-15T09:44:58;17.15;;;13.68;;
16330;SDS011;8275;48.206;16.340;2023-02-15T09:48:07;16.65;;;12.82;;
16330;SDS011;8275;48.206;16.340;2023-02-15T09:51:05;23.65;;;16.40;;
16330;SDS011;8275;48.206;16.340;2023-02-15T09:54:15;18.98;;;14.93;;
16330;SDS011;8275;48.206;16.340;2023-02-15T09:57:05;18.80;;;15.68;;
16330;SDS011;8275;48.206;16.340;2023-02-15T09:59:45;18.10;;;13.45;;
16330;SDS011;8275;48.206;16.340;2023-02-15T10:02:27;16.65;;;13.65;;
16330;SDS011;8275;48.206;16.340;2023-02-15T10:05:15;18.90;;;14.50;;
16330;SDS011;8275;48.206;16.340;2023-02-15T10:11:17;17.65;;;13.93;;
16330;SDS011;8275;48.206;16.340;2023-02-15T10:14:14;17.75;;;14.05;;
16330;SDS011;8275;48.206;16.340;2023-02-15T10:17:08;19.63;;;16.90;;
16330;SDS011;8275;48.206;16.340;2023-02-15T10:19:50;21.10;;;15.43;;
16330;SDS011;8275;48.206;16.340;2023-02-15T10:22:36;24.13;;;18.85;;
16330;SDS011;8275;48.206;16.340;2023-02-15T10:25:18;23.20;;;18.40;;
16330;SDS011;8275;48.206;16.340;2023-02-15T10:28:03;17.60;;;15.75;;
16330;SDS011;8275;48.206;16.340;2023-02-15T10:30:36;16.92;;;14.57;;
16330;SDS011;8275;48.206;16.340;2023-02-15T10:33:14;21.33;;;16.45;;
16330;SDS011;8275;48.206;16.340;2023-02-15T10:36:05;23.15;;;16.52;;
16330;SDS011;8275;48.206;16.340;2023-02-15T10:38:51;21.70;;;14.38;;
16330;SDS011;8275;48.206;16.340;2023-02-15T10:41:32;22.48;;;16.30;;
16330;SDS011;8275;48.206;16.340;2023-02-15T10:44:23;18.13;;;15.93;;
16330;SDS011;8275;48.206;16.340;2023-02-15T10:47:09;17.38;;;14.65;;
16330;SDS011;8275;48.206;16.340;2023-02-15T10:50:01;22.05;;;16.33;;
16330;SDS011;8275;48.206;16.340;2023-02-15T10:52:47;17.08;;;14.77;;
16330;SDS011;8275;48.206;16.340;2023-02-15T10:55:31;20.25;;;15.52;;
16330;SDS011;8275;48.206;16.340;2023-02-15T10:58:14;18.77;;;16.17;;
16330;SDS011;8275;48.206;16.340;2023-02-15T11:00:54;19.02;;;14.85;;
16330;SDS011;8275;48.206;16.340;2023-02-15T11:03:34;22.38;;;15.02;;
16330;SDS011;8275;48.206;16.340;2023-02-15T11:06:17;18.98;;;14.20;;
16330;SDS011;8275;48.206;16.340;2023-02-15T11:08:49;19.63;;;16.17;;
16330;SDS011;8275;48.206;16.340;2023-02-15T11:11:23;16.30;;;14.70;;
16330;SDS011;8275;48.206;16.340;2023-02-15T11:13:57;20.50;;;17.90;;
16330;SDS011;8275;48.206;16.340;2023-02-15T11:16:32;20.60;;;13.60;;
16330;SDS011;8275;48.206;16.340;2023-02-15T11:19:06;16.90;;;14.15;;
16330;SDS011;8275;48.206;16.340;2023-02-15T11:21:40;15.80;;;14.15;;
16330;SDS011;8275;48.206;16.340;2023-02-15T11:24:13;21.55;;;17.02;;
16330;SDS011;8275;48.206;16.340;2023-02-15T11:26:48;19.27;;;15.82;;
16330;SDS011;8275;48.206;16.340;2023-02-15T11:29:24;23.95;;;16.50;;
16330;SDS011;8275;48.206;16.340;2023-02-15T11:32:01;18.85;;;16.73;;
16330;SDS011;8275;48.206;16.340;2023-02-15T11:34:44;20.30;;;17.35;;
16330;SDS011;8275;48.206;16.340;2023-02-15T11:37:20;19.40;;;15.45;;
16330;SDS011;8275;48.206;16.340;2023-02-15T11:39:52;15.52;;;13.88;;
16330;SDS011;8275;48.206;16.340;2023-02-15T11:42:21;19.45;;;16.02;;
16330;SDS011;8275;48.206;16.340;2023-02-15T11:44:55;19.20;;;15.63;;
16330;SDS011;8275;48.206;16.340;2023-02-15T11:47:30;18.77;;;15.10;;
16330;SDS011;8275;48.206;16.340;2023-02-15T11:49:59;19.85;;;14.85;;
16330;SDS011;8275;48.206;16.340;2023-02-15T11:52:27;19.70;;;16.40;;
16330;SDS011;8275;48.206;16.340;2023-02-15T11:54:56;18.08;;;14.75;;
16330;SDS011;8275;48.206;16.340;2023-02-15T11:57:26;24.02;;;16.30;;
16330;SDS011;8275;48.206;16.340;2023-02-15T12:00:06;18.85;;;15.52;;
16330;SDS011;8275;48.206;16.340;2023-02-15T12:02:44;18.98;;;14.90;;
16330;SDS011;8275;48.206;16.340;2023-02-15T12:05:18;19.52;;;17.42;;
16330;SDS011;8275;48.206;16.340;2023-02-15T12:07:52;18.30;;;15.07;;
16330;SDS011;8275;48.206;16.340;2023-02-15T12:10:30;19.33;;;15.70;;
16330;SDS011;8275;48.206;16.340;2023-02-15T12:13:10;18.10;;;16.10;;
16330;SDS011;8275;48.206;16.340;2023-02-15T12:15:41;17.27;;;15.02;;
16330;SDS011;8275;48.206;16.340;2023-02-15T12:18:21;18.40;;;16.23;;
16330;SDS011;8275;48.206;16.340;2023-02-15T12:21:03;19.40;;;15.15;;
16330;SDS011;8275;48.206;16.340;2023-02-15T12:23:39;21.25;;;16.58;;
16330;SDS011;8275;48.206;16.340;2023-02-15T12:26:15;20.05;;;15.32;;
16330;SDS011;8275;48.206;16.340;2023-02-15T12:28:53;19.38;;;15.13;;
16330;SDS011;8275;48.206;16.340;2023-02-15T12:31:30;19.77;;;16.95;;
16330;SDS011;8275;48.206;16.340;2023-02-15T12:34:07;20.27;;;15.98;;
16330;SDS011;8275;48.206;16.340;2023-02-15T12:36:40;23.00;;;15.57;;
16330;SDS011;8275;48.206;16.340;2023-02-15T12:39:17;20.08;;;16.35;;
16330;SDS011;8275;48.206;16.340;2023-02-15T12:41:59;19.85;;;15.85;;
16330;SDS011;8275;48.206;16.340;2023-02-15T12:44:31;21.80;;;16.70;;
16330;SDS011;8275;48.206;16.340;2023-02-15T12:47:02;22.17;;;14.75;;
16330;SDS011;8275;48.206;16.340;2023-02-15T12:49:35;21.00;;;15.55;;
16330;SDS011;8275;48.206;16.340;2023-02-15T12:52:22;23.02;;;18.80;;
16330;SDS011;8275;48.206;16.340;2023-02-15T12:54:53;21.58;;;17.30;;
16330;SDS011;8275;48.206;16.340;2023-02-15T12:57:22;18.65;;;16.30;;
16330;SDS011;8275;48.206;16.340;2023-02-15T12:59:54;20.80;;;17.45;;
16330;SDS011;8275;48.206;16.340;2023-02-15T13:02:28;22.20;;;17.20;;
16330;SDS011;8275;48.206;16.340;2023-02-15T13:05:10;21.67;;;17.23;;
16330;SDS011;8275;48.206;16.340;2023-02-15T13:07:50;30.20;;;18.58;;
16330;SDS011;8275;48.206;16.340;2023-02-15T13:10:25;27.75;;;19.80;;
16330;SDS011;8275;48.206;16.340;2023-02-15T13:12:56;21.70;;;19.25;;
16330;SDS011;8275;48.206;16.340;2023-02-15T13:15:30;29.87;;;25.13;;
16330;SDS011;8275;48.206;16.340;2023-02-15T13:18:04;23.63;;;17.77;;
16330;SDS011;8275;48.206;16.340;2023-02-15T13:20:39;25.85;;;18.42;;
16330;SDS011;8275;48.206;16.340;2023-02-15T13:23:16;25.55;;;20.48;;
16330;SDS011;8275;48.206;16.340;2023-02-15T13:25:55;18.40;;;15.63;;
16330;SDS011;8275;48.206;16.340;2023-02-15T13:28:27;23.27;;;20.80;;
16330;SDS011;8275;48.206;16.340;2023-02-15T13:31:04;27.17;;;19.67;;
16330;SDS011;8275;48.206;16.340;2023-02-15T13:33:42;22.73;;;18.42;;
16330;SDS011;8275;48.206;16.340;2023-02-15T13:36:19;19.88;;;17.15;;
16330;SDS011;8275;48.206;16.340;2023-02-15T13:39:00;26.60;;;20.40;;
16330;SDS011;8275;48.206;16.340;2023-02-15T13:41:42;22.35;;;18.88;;
16330;SDS011;8275;48.206;16.340;2023-02-15T13:44:23;24.20;;;20.52;;
16330;SDS011;8275;48.206;16.340;2023-02-15T13:47:12;22.80;;;18.00;;
16330;SDS011;8275;48.206;16.340;2023-02-15T13:49:58;24.63;;;21.02;;
16330;SDS011;8275;48.206;16.340;2023-02-15T13:52:50;20.90;;;18.00;;
16330;SDS011;8275;48.206;16.340;2023-02-15T13:55:33;22.38;;;19.42;;
16330;SDS011;8275;48.206;16.340;2023-02-15T13:58:09;22.05;;;18.27;;
16330;SDS011;8275;48.206;16.340;2023-02-15T14:00:56;22.73;;;17.92;;
16330;SDS011;8275;48.206;16.340;2023-02-15T14:03:41;25.73;;;19.23;;
16330;SDS011;8275;48.206;16.340;2023-02-15T14:09:40;27.98;;;18.52;;
16330;SDS011;8275;48.206;16.340;2023-02-15T14:12:29;23.02;;;18.25;;
16330;SDS011;8275;48.206;16.340;2023-02-15T14:15:12;33.92;;;18.65;;
16330;SDS011;8275;48.206;16.340;2023-02-15T14:17:56;20.50;;;18.05;;
16330;SDS011;8275;48.206;16.340;2023-02-15T14:20:43;21.10;;;17.60;;
16330;SDS011;8275;48.206;16.340;2023-02-15T14:23:27;23.58;;;18.02;;
16330;SDS011;8275;48.206;16.340;2023-02-15T14:26:17;19.17;;;16.33;;
16330;SDS011;8275;48.206;16.340;2023-02-15T14:28:59;20.25;;;15.68;;
16330;SDS011;8275;48.206;16.340;2023-02-15T14:31:41;21.75;;;16.58;;
16330;SDS011;8275;48.206;16.340;2023-02-15T14:34:18;19.85;;;16.35;;
16330;SDS011;8275;48.206;16.340;2023-02-15T14:36:51;21.25;;;16.13;;
16330;SDS011;8275;48.206;16.340;2023-02-15T14:39:31;19.25;;;16.05;;
16330;SDS011;8275;48.206;16.340;2023-02-15T14:42:34;18.30;;;15.02;;
16330;SDS011;8275;48.206;16.340;2023-02-15T14:45:15;18.02;;;14.88;;
16330;SDS011;8275;48.206;16.340;2023-02-15T14:47:48;20.23;;;15.52;;
16330;SDS011;8275;48.206;16.340;2023-02-15T14:50:39;21.30;;;14.88;;
16330;SDS011;8275;48.206;16.340;2023-02-15T14:56:22;23.43;;;19.37;;
16330;SDS011;8275;48.206;16.340;2023-02-15T15:01:51;19.15;;;15.52;;
16330;SDS011;8275;48.206;16.340;2023-02-15T15:04:27;21.77;;;16.25;;
16330;SDS011;8275;48.206;16.340;2023-02-15T15:07:02;29.75;;;20.50;;
16330;SDS011;8275;48.206;16.340;2023-02-15T15:09:40;22.58;;;17.45;;
16330;SDS011;8275;48.206;16.340;2023-02-15T15:12:15;23.17;;;17.13;;
16330;SDS011;8275;48.206;16.340;2023-02-15T15:15:09;19.98;;;16.42;;
16330;SDS011;8275;48.206;16.340;2023-02-15T15:17:55;20.50;;;16.08;;
16330;SDS011;8275;48.206;16.340;2023-02-15T15:20:37;22.38;;;16.20;;
16330;SDS011;8275;48.206;16.340;2023-02-15T15:26:21;23.73;;;16.65;;